Search for airport 
image banner adimage banner adimage banner ad
image banner ad

KIPL - Imperial County

Located in Imperial, United States

ICAO - IPL, IATA - IPL

Data provided by Airmate  

General information

Coordinates: N32°50'3" W115°34'44"
Elevation is -54 feet MSL.
Magnetic variation is 14° East
View others Airports in California

Operational data

Special qualification required
Current time UTC:
Current local time:
Weather
METAR: KIPL 291353Z AUTO 30003KT 10SM CLR 30/14 A2978 RMK AO2 SLP084 T03000139
TAF: KIPL 291124Z 2912/3012 VRB05KT P6SM SCT250 FM292000 16008KT P6SM FEW100 BKN250 FM301000 16014KT P6SM VCSH SCT080 SCT150 OVC250
View NOTAMs / SUP AIP / TFR affecting this airport [VIEW]
Communications frequencies: [VIEW]

Runways:

RWY identifierQFULength (ft)Width (ft)SurfaceLDA (ft)
0890°450175ASPH4501
26270°450175ASPH4501
14153°5308100ASPH5304
32333°5308100ASPH5304

Airport contact information

Address: Imperial United States

Other aviation service providers

Flight schools

Imperial Sky Aviation, Llc

Imperial Sky Aviation, Llc

Satellite view of KIPL